Olga, WA

6:44 PM PDT on August 24, 2016 (GMT -0700)
660 feet south of Spieden Channel | | Change Station

Elev 100 ft 48.62 °N, 123.13 °W | Updated 10 minutes ago

Clear
Clear
72.8 °F
Feels Like 77 °F
N
1.0
Wind Variable Wind from NNE
Gusts 4.0 mph

Today
High -- | Low -- °F
--% Chance of Precip.
Yesterday
High -- | Low -- °F
Precip. -- in
Pressure 30.13 in
Visibility 10.0 miles
Clouds Clear
Heat Index 77 °F
Dew Point 55.7 °F
Humidity 55%
Rainfall Not available.
Snow Depth Not available.
6:18 AM 8:07 PM
Waning Gibbous, 51% visible
METAR KORS 250135Z AUTO 36003KT 10SM CLR 23/12 A3013 RMK AO2
Pressure 30.13 in
Visibility 10.0 miles
Clouds Clear
Heat Index 77 °F
Dew Point 55.7 °F
Humidity 55%
Rainfall Not available.
Snow Depth Not available.
6:18 AM 8:07 PM
Waning Gibbous, 51% visible
METAR KORS 250135Z AUTO 36003KT 10SM CLR 23/12 A3013 RMK AO2

10-Day Weather Forecast

Almanac

Astronomy

Aug. 24, 2016 Rise Set
Actual Time
Civil Twilight
Nautical Twilight
Astronomical Twilight
Moon
Length of Visible Light
Length of Day
Tomorrow will be .
, % of the Moon is Illuminated

Today's Extremes

State Highs State Lows

Community

WunderPhotos

Upload Photos

1,934,769 photos uploaded!

WunderBlog® & News

Nearby

Air Quality

  Air Quality AQ Index Pollutant
Not available.

Snow Depth

Station Depth Elevation

Earthquake Activity

City Distance Mag. Time & Date
Minimum magnitude displayed is 2.5.

Coastal Water Temperatures

Place Temperature

Stations

Nearby Weather Stations

Station Location Temp. Windchill Dew Point Humidity Wind Precip. Elev Updated Type
                   

Watches & Warnings

There are currently no watches in effect.